Gaia — PC4584 — position and weather

sailwx.info

Track history (hours):
 
Tides and Currents Weather Stations Pressure Air Temp Water Temp Dewpoint Dewpoint Depression Visibility Wind Speed Wind Dir Waves Ship Positions

Gaia

Last reported at 2016-Nov-06 07:03 UTC. Time now 2016-Dec-11 06:04 UTC.
Position N 52°51' E 005°41'.
Warning: this ship's position is 34 days out of date.

Length 12 m.

Type: Sailing vessel. MMSI: 244615031.

Date/timePositionNaut miles runAvg speedWind from/ knotsBaromVisibWave heightAir tempDewpointWater temp
2016-Nov-06 07:03N 52°51' E 005°41'  
2016-Oct-31 13:33N 52°47' E 005°32'4 4.0
2016-Oct-31 12:33N 52°45' E 005°26'6 3.1
2016-Oct-31 10:31N 52°42' E 005°17'0 0.0
2016-Oct-31 09:31N 52°42' E 005°17'0 0.0
2016-Oct-31 08:31N 52°42' E 005°17'0 0.0
2016-Oct-31 07:31N 52°42' E 005°17'0 0.0
2016-Oct-31 03:31N 52°42' E 005°17'0 0.0
2016-Oct-30 20:31N 52°42' E 005°17'0 0.0
2016-Oct-30 13:31N 52°42' E 005°17'0 0.0
2016-Oct-30 12:31N 52°42' E 005°17'0 0.0
2016-Oct-30 11:31N 52°42' E 005°17'0 0.0
2016-Oct-30 08:33N 52°42' E 005°17'0 0.1
2016-Oct-30 07:33N 52°42' E 005°18'0 0.0
2016-Oct-30 02:33N 52°42' E 005°18'0 0.0
2016-Oct-30 00:30N 52°42' E 005°18'0 0.0
2016-Oct-29 23:33N 52°42' E 005°18'0 0.0
2016-Oct-29 22:33N 52°42' E 005°18'0 0.0
2016-Oct-29 21:33N 52°42' E 005°18'0 0.0
2016-Oct-29 20:31N 52°42' E 005°18'0 0.0
2016-Oct-29 19:31N 52°42' E 005°18'0 0.0
2016-Oct-29 18:31N 52°42' E 005°18'0 0.0
2016-Oct-29 16:31N 52°42' E 005°18'6 3.0
2016-Oct-29 14:33N 52°42' E 005°27'13 1.0
2016-Oct-29 02:21N 52°51' E 005°41'  
Track history (hours):
 
Tides and Currents Weather Stations Pressure Air Temp Water Temp Dewpoint Dewpoint Depression Visibility Wind Speed Wind Dir Waves Ship Positions

Gaia

Last reported at 2016-Nov-06 07:03 UTC. Time now 2016-Dec-11 06:04 UTC.
Position N 52°51' E 005°41'.
Warning: this ship's position is 34 days out of date.

Length 12 m.

Type: Sailing vessel. MMSI: 244615031.

Date/timePositionNaut miles runAvg speedWind from/ knotsBaromVisibWave heightAir tempDewpointWater temp
2016-Nov-06 07:03N 52°51' E 005°41'  
2016-Oct-31 13:33N 52°47' E 005°32'4 4.0
2016-Oct-31 12:33N 52°45' E 005°26'6 3.1
2016-Oct-31 10:31N 52°42' E 005°17'0 0.0
2016-Oct-31 09:31N 52°42' E 005°17'0 0.0
2016-Oct-31 08:31N 52°42' E 005°17'0 0.0
2016-Oct-31 07:31N 52°42' E 005°17'0 0.0
2016-Oct-31 03:31N 52°42' E 005°17'0 0.0
2016-Oct-30 20:31N 52°42' E 005°17'0 0.0
2016-Oct-30 13:31N 52°42' E 005°17'0 0.0
2016-Oct-30 12:31N 52°42' E 005°17'0 0.0
2016-Oct-30 11:31N 52°42' E 005°17'0 0.0
2016-Oct-30 08:33N 52°42' E 005°17'0 0.1
2016-Oct-30 07:33N 52°42' E 005°18'0 0.0
2016-Oct-30 02:33N 52°42' E 005°18'0 0.0
2016-Oct-30 00:30N 52°42' E 005°18'0 0.0
2016-Oct-29 23:33N 52°42' E 005°18'0 0.0
2016-Oct-29 22:33N 52°42' E 005°18'0 0.0
2016-Oct-29 21:33N 52°42' E 005°18'0 0.0
2016-Oct-29 20:31N 52°42' E 005°18'0 0.0
2016-Oct-29 19:31N 52°42' E 005°18'0 0.0
2016-Oct-29 18:31N 52°42' E 005°18'0 0.0
2016-Oct-29 16:31N 52°42' E 005°18'6 3.0
2016-Oct-29 14:33N 52°42' E 005°27'13 1.0
2016-Oct-29 02:21N 52°51' E 005°41'  

Dump ship's entire track history